Portada
METAR-TAF:

METAR-TAF

Aeroports :

Jamshedpur, Índia

latitud: 22-48-49N, longitud: 086-10-05E, altitud: 146 m

Observació

L'informe es va fer fa 13 hores i 18 minuts, a les 12:00 UTC
Vent calma
Temperatura 24°C
Humitat 74%
Pressió 1014 hPa
Visibilitat: 3000 m
calitja

METAR: VEJS 131200Z 00000KT 3000 HZ NSC 24/19 Q1014

Hora: 06:48 (01:18 UTC)

Pronòstic

L'informe es va fer fa 2 hores i 18 minuts, a les 23:00 UTC
Pronòstic vàlid del 14 a les 00 UTC al 14 a les 09 UTC
Vent kt del Nord
Visibilitat: 1000 m
Boira superficial
Evolucionant progressivament
l' 14 a les 03 UTC al 14 a les 05 UTC
Vent 5 kt del Oest/Nord-Oest
Visibilitat: 2000 m
boirina
Evolucionant progressivament
l' 14 a les 07 UTC al 14 a les 09 UTC
Visibilitat: 3000 m
calitja

TAF: VEJS 132300Z 1400/1409 00000KT 1000 MIFG NSC BECMG 1403/1405 29005KT 2000 BR BECMG 1407/1409 3000 HZ

Observacions i pronòstics meteorològics de més de 4000 aeroports (METAR i TAF).

Les estacions disponibles són els punts grocs i vermells al mapa.

Posi el ratolí al punt desitjat per veure el nom de l'estació.

Feu clic per veure les observacions i els pronòstics meteorològics.

Per canviar el mapa: feu clic els botons verds amb una creu de color negre per apropar; al botó verd amb un guió per allunyar la imatge; o en les fletxes verdes per a mapes adjacents.


METAR-TAF: